createdAt,value
2022-09-28T00:00:17.472Z,98773.50
2022-09-28T00:02:44.146Z,98772.56
2022-09-28T00:05:10.858Z,98783.84
2022-09-28T00:07:37.419Z,98775.84
2022-09-28T00:10:05.854Z,98784.38
2022-09-28T00:12:32.466Z,98781.09
2022-09-28T00:14:59.050Z,98778.47
2022-09-28T00:17:25.846Z,98774.25
2022-09-28T00:19:52.490Z,98765.53
2022-09-28T00:22:19.058Z,98763.75
2022-09-28T00:24:45.650Z,98763.75
2022-09-28T00:27:12.269Z,98758.81
2022-09-28T00:29:38.830Z,98763.31
2022-09-28T00:32:09.474Z,98761.47
2022-09-28T00:34:38.702Z,98760.28
2022-09-28T00:37:06.863Z,98763.56
2022-09-28T00:39:33.437Z,98755.19
2022-09-28T00:42:00.033Z,98756.00
2022-09-28T00:44:26.564Z,98760.28
2022-09-28T00:46:57.931Z,98767.28
2022-09-28T00:49:34.931Z,98768.09
2022-09-28T00:52:06.255Z,98761.38
2022-09-28T00:54:34.764Z,98771.00
2022-09-28T00:57:03.377Z,98773.53
2022-09-28T00:59:31.805Z,98778.50
2022-09-28T01:01:58.612Z,98769.72
2022-09-28T01:04:29.759Z,98782.81
2022-09-28T01:06:58.605Z,98784.53
2022-09-28T01:09:27.453Z,98785.59
2022-09-28T01:11:54.011Z,98785.97
2022-09-28T01:14:21.085Z,98777.09
2022-09-28T01:17:13.463Z,98772.84
2022-09-28T01:20:15.167Z,98782.03
2022-09-28T01:23:06.292Z,98785.47
2022-09-28T01:26:00.647Z,98790.50
2022-09-28T01:28:32.191Z,98791.03
2022-09-28T01:31:04.819Z,98781.25
2022-09-28T01:33:46.418Z,98784.91
2022-09-28T01:36:20.283Z,98800.09
2022-09-28T01:38:53.593Z,98792.66
2022-09-28T01:41:22.292Z,98807.56
2022-09-28T01:43:55.245Z,98800.09
2022-09-28T01:46:27.113Z,98800.16
2022-09-28T01:49:23.014Z,98803.44
2022-09-28T01:52:02.247Z,98813.69
2022-09-28T01:54:30.932Z,98813.94
2022-09-28T01:57:09.247Z,98817.97
2022-09-28T01:59:41.223Z,98812.28
2022-09-28T02:02:19.062Z,98820.00
2022-09-28T02:04:59.831Z,98817.53
2022-09-28T02:07:34.452Z,98818.34
2022-09-28T02:10:11.074Z,98821.63
2022-09-28T02:12:44.029Z,98824.63
2022-09-28T02:15:20.795Z,98818.47
2022-09-28T02:17:48.177Z,98824.50
2022-09-28T02:20:17.099Z,98825.16
2022-09-28T02:22:44.261Z,98823.91
2022-09-28T02:25:28.811Z,98821.28
2022-09-28T02:27:59.354Z,98822.25
2022-09-28T02:30:26.586Z,98819.84
2022-09-28T02:32:58.795Z,98824.38
2022-09-28T02:35:25.415Z,98831.66
2022-09-28T02:37:52.562Z,98832.47
2022-09-28T02:40:23.983Z,98838.44
2022-09-28T02:43:20.745Z,98840.25
2022-09-28T02:46:01.907Z,98829.63
2022-09-28T02:49:10.482Z,98828.75
2022-09-28T02:52:11.266Z,98824.72
2022-09-28T02:54:49.790Z,98819.88
2022-09-28T02:57:35.071Z,98824.81
2022-09-28T03:00:11.706Z,98829.44
2022-09-28T03:02:56.923Z,98826.94
2022-09-28T03:06:01.994Z,98827.91
2022-09-28T03:08:56.294Z,98836.16
2022-09-28T03:11:36.246Z,98833.09
2022-09-28T03:14:05.859Z,98845.94
2022-09-28T03:16:32.479Z,98854.72
2022-09-28T03:18:59.147Z,98851.34
2022-09-28T03:21:25.739Z,98849.97
2022-09-28T03:23:52.316Z,98853.41
2022-09-28T03:26:18.875Z,98849.28
2022-09-28T03:28:45.624Z,98852.63
2022-09-28T03:31:12.297Z,98845.88
2022-09-28T03:33:39.012Z,98844.25
2022-09-28T03:36:05.742Z,98842.47
2022-09-28T03:38:32.291Z,98852.28
2022-09-28T03:41:00.384Z,98851.97
2022-09-28T03:43:28.072Z,98851.25
2022-09-28T03:46:00.159Z,98844.50
2022-09-28T03:48:32.424Z,98846.53
2022-09-28T03:51:02.156Z,98851.91
2022-09-28T03:53:28.929Z,98852.34
2022-09-28T03:55:55.818Z,98854.00
2022-09-28T03:58:23.209Z,98852.41
2022-09-28T04:00:50.492Z,98855.81
2022-09-28T04:03:17.167Z,98860.00
2022-09-28T04:05:53.270Z,98855.53
2022-09-28T04:08:19.978Z,98859.34
2022-09-28T04:10:46.976Z,98858.38
2022-09-28T04:13:13.755Z,98852.34
2022-09-28T04:15:40.322Z,98858.22
2022-09-28T04:18:13.237Z,98849.22
2022-09-28T04:20:39.815Z,98859.53
2022-09-28T04:23:06.442Z,98855.22
2022-09-28T04:25:33.008Z,98857.53
2022-09-28T04:27:59.595Z,98855.19
2022-09-28T04:30:26.232Z,98853.69
2022-09-28T04:32:52.813Z,98847.66
2022-09-28T04:35:19.456Z,98848.28
2022-09-28T04:37:46.084Z,98850.94
2022-09-28T04:40:12.669Z,98851.38
2022-09-28T04:42:39.241Z,98851.31
2022-09-28T04:45:06.528Z,98853.00
2022-09-28T04:47:33.217Z,98850.59
2022-09-28T04:49:59.824Z,98861.78
2022-09-28T04:52:26.378Z,98862.66
2022-09-28T04:54:52.980Z,98852.28
2022-09-28T04:57:19.722Z,98851.88
2022-09-28T04:59:46.287Z,98851.53
2022-09-28T05:02:12.885Z,98845.31
2022-09-28T05:04:39.573Z,98852.16
2022-09-28T05:07:06.220Z,98853.31
2022-09-28T05:09:36.320Z,98847.06
2022-09-28T05:12:05.402Z,98846.97
2022-09-28T05:14:32.062Z,98856.06
2022-09-28T05:16:58.798Z,98857.66
2022-09-28T05:19:25.396Z,98851.53
2022-09-28T05:21:51.965Z,98857.78
2022-09-28T05:24:18.598Z,98853.44
2022-09-28T05:26:45.202Z,98861.41
2022-09-28T05:29:11.766Z,98865.06
2022-09-28T05:31:38.436Z,98866.78
2022-09-28T05:34:05.167Z,98863.34
2022-09-28T05:36:31.775Z,98875.09
2022-09-28T05:38:58.454Z,98873.16
2022-09-28T05:41:25.036Z,98871.31
2022-09-28T05:43:51.612Z,98867.91
2022-09-28T05:46:18.307Z,98870.13
2022-09-28T05:48:44.933Z,98865.78
2022-09-28T05:51:11.555Z,98864.81
2022-09-28T05:53:38.242Z,98857.00
2022-09-28T05:56:04.919Z,98863.03
2022-09-28T05:58:31.575Z,98860.16
2022-09-28T06:00:58.776Z,98858.06
2022-09-28T06:03:25.736Z,98852.53
2022-09-28T06:05:52.892Z,98847.94
2022-09-28T06:08:19.523Z,98858.56
2022-09-28T06:10:46.119Z,98853.66
2022-09-28T06:13:12.767Z,98868.09
2022-09-28T06:15:42.474Z,98871.00
2022-09-28T06:18:14.043Z,98864.00
2022-09-28T06:20:41.449Z,98863.25
2022-09-28T06:23:09.314Z,98870.47
2022-09-28T06:25:35.969Z,98857.69
2022-09-28T06:28:09.742Z,98863.50
2022-09-28T06:30:36.713Z,98859.94
2022-09-28T06:33:03.340Z,98861.59
2022-09-28T06:35:31.296Z,98869.19
2022-09-28T06:37:59.094Z,98869.78
2022-09-28T06:40:26.996Z,98874.66
2022-09-28T06:43:02.450Z,98869.84
2022-09-28T06:45:30.187Z,98878.41
2022-09-28T06:47:59.242Z,98870.25
2022-09-28T06:50:27.579Z,98876.25
2022-09-28T06:52:55.315Z,98880.50
2022-09-28T06:55:22.138Z,98875.72
2022-09-28T06:58:04.467Z,98877.44
2022-09-28T07:00:33.950Z,98885.59
2022-09-28T07:03:03.310Z,98881.06
2022-09-28T07:05:30.513Z,98879.53
2022-09-28T07:07:57.633Z,98884.75
2022-09-28T07:10:28.927Z,98888.31
2022-09-28T07:12:57.028Z,98884.19
2022-09-28T07:15:24.657Z,98888.84
2022-09-28T07:18:01.858Z,98889.75
2022-09-28T07:20:30.118Z,98893.72
2022-09-28T07:23:09.756Z,98889.69
2022-09-28T07:25:40.412Z,98882.75
2022-09-28T07:28:06.987Z,98882.50
2022-09-28T07:30:35.003Z,98893.09
2022-09-28T07:33:02.847Z,98891.41
2022-09-28T07:35:29.528Z,98889.63
2022-09-28T07:38:00.802Z,98887.81
2022-09-28T07:40:28.010Z,98890.78
2022-09-28T07:42:54.615Z,98887.53
2022-09-28T07:45:21.264Z,98884.03
2022-09-28T07:47:47.876Z,98891.50
2022-09-28T07:50:14.559Z,98885.88
2022-09-28T07:52:41.129Z,98884.34
2022-09-28T07:55:08.165Z,98891.75
2022-09-28T07:57:34.745Z,98884.41
2022-09-28T08:00:01.642Z,98892.31
2022-09-28T08:02:28.302Z,98886.59
2022-09-28T08:04:54.880Z,98891.53
2022-09-28T08:07:23.862Z,98897.06
2022-09-28T08:09:51.059Z,98901.09
2022-09-28T08:12:17.671Z,98892.63
2022-09-28T08:14:44.232Z,98898.06
2022-09-28T08:17:10.809Z,98885.75
2022-09-28T08:19:37.441Z,98882.38
2022-09-28T08:22:04.149Z,98874.19
2022-09-28T08:24:31.508Z,98861.16
2022-09-28T08:26:58.075Z,98856.69
2022-09-28T08:29:24.624Z,98855.22
2022-09-28T08:31:51.207Z,98862.97
2022-09-28T08:34:17.882Z,98851.81
2022-09-28T08:36:44.486Z,98856.63
2022-09-28T08:39:11.096Z,98859.47
2022-09-28T08:41:50.459Z,98852.66
2022-09-28T08:44:20.164Z,98861.50
2022-09-28T08:47:00.607Z,98876.66
2022-09-28T08:49:37.248Z,98880.44
2022-09-28T08:52:10.879Z,98876.09
2022-09-28T08:54:40.385Z,98876.75
2022-09-28T08:57:20.938Z,98872.44
2022-09-28T08:59:52.390Z,98872.97
2022-09-28T09:02:30.582Z,98872.03
2022-09-28T09:04:58.012Z,98868.03
2022-09-28T09:07:43.090Z,98869.84
2022-09-28T09:10:33.087Z,98873.66
2022-09-28T09:13:17.940Z,98869.28
2022-09-28T09:16:16.578Z,98873.06
2022-09-28T09:18:52.243Z,98867.78
2022-09-28T09:21:33.363Z,98863.50
2022-09-28T09:24:18.025Z,98863.88
2022-09-28T09:26:45.738Z,98867.84
2022-09-28T09:29:33.719Z,98873.75
2022-09-28T09:32:22.830Z,98873.22
2022-09-28T09:35:12.464Z,98874.00
2022-09-28T09:38:18.728Z,98869.75
2022-09-28T09:40:52.869Z,98867.03
2022-09-28T09:43:34.765Z,98863.34
2022-09-28T09:46:04.162Z,98867.63
2022-09-28T09:48:46.229Z,98867.69
2022-09-28T09:51:37.817Z,98868.09
2022-09-28T09:54:18.500Z,98866.78
2022-09-28T09:57:06.983Z,98864.16
2022-09-28T09:59:38.147Z,98867.56
2022-09-28T10:02:29.121Z,98871.28
2022-09-28T10:05:17.219Z,98869.47
2022-09-28T10:08:00.634Z,98866.16
2022-09-28T10:10:34.557Z,98863.88
2022-09-28T10:13:01.859Z,98869.69
2022-09-28T10:15:31.169Z,98870.56
2022-09-28T10:18:03.352Z,98872.63
2022-09-28T10:20:34.567Z,98863.53
2022-09-28T10:23:04.161Z,98864.66
2022-09-28T10:25:34.291Z,98871.09
2022-09-28T10:28:01.487Z,98871.47
2022-09-28T10:30:28.190Z,98875.72
2022-09-28T10:32:55.604Z,98874.03
2022-09-28T10:35:28.426Z,98867.38
2022-09-28T10:37:58.894Z,98863.91
2022-09-28T10:40:40.387Z,98875.41
2022-09-28T10:43:18.199Z,98871.06
2022-09-28T10:45:45.187Z,98867.72
2022-09-28T10:48:22.321Z,98873.28
2022-09-28T10:51:19.574Z,98873.75
2022-09-28T10:54:02.371Z,98878.50
2022-09-28T10:56:36.490Z,98869.78
2022-09-28T10:59:22.806Z,98867.34
2022-09-28T11:01:54.633Z,98854.81
2022-09-28T11:04:26.323Z,98854.31
2022-09-28T11:06:53.297Z,98855.06
2022-09-28T11:09:29.689Z,98847.72
2022-09-28T11:11:59.373Z,98839.59
2022-09-28T11:14:42.493Z,98835.63
2022-09-28T11:17:30.147Z,98839.13
2022-09-28T11:19:59.193Z,98850.31
2022-09-28T11:22:29.179Z,98853.06
2022-09-28T11:25:14.003Z,98849.22
2022-09-28T11:27:40.943Z,98844.22
2022-09-28T11:30:25.793Z,98838.91
2022-09-28T11:33:22.475Z,98832.91
2022-09-28T11:36:06.951Z,98826.41
2022-09-28T11:39:08.422Z,98829.66
2022-09-28T11:41:46.987Z,98827.69
2022-09-28T11:44:33.815Z,98827.31
2022-09-28T11:47:33.361Z,98835.28
2022-09-28T11:50:22.893Z,98836.00
2022-09-28T11:53:01.681Z,98830.25
2022-09-28T11:55:41.667Z,98843.19
2022-09-28T11:58:17.567Z,98830.63
2022-09-28T12:00:52.545Z,98827.34
2022-09-28T12:03:34.649Z,98826.91
2022-09-28T12:06:05.897Z,98826.28
2022-09-28T12:08:37.097Z,98809.78
2022-09-28T12:11:23.720Z,98804.06
2022-09-28T12:13:54.257Z,98799.09
2022-09-28T12:17:00.484Z,98791.03
2022-09-28T12:19:29.856Z,98789.94
2022-09-28T12:22:05.438Z,98786.34
2022-09-28T12:24:54.360Z,98785.25
2022-09-28T12:27:30.573Z,98784.75
2022-09-28T12:30:18.991Z,98767.53
2022-09-28T12:32:57.227Z,98775.06
2022-09-28T12:36:14.830Z,98768.13
2022-09-28T12:39:21.853Z,98766.69
2022-09-28T12:41:59.787Z,98759.53
2022-09-28T12:44:35.110Z,98757.56
2022-09-28T12:47:23.351Z,98752.88
2022-09-28T12:50:37.497Z,98761.00
2022-09-28T12:53:08.046Z,98754.03
2022-09-28T12:55:53.092Z,98745.63
2022-09-28T12:58:19.616Z,98756.38
2022-09-28T13:00:55.155Z,98741.78
2022-09-28T13:03:27.533Z,98742.75
2022-09-28T13:06:21.645Z,98756.69
2022-09-28T13:09:06.592Z,98743.56
2022-09-28T13:11:58.072Z,98740.53
2022-09-28T13:15:01.321Z,98749.03
2022-09-28T13:17:49.079Z,98743.94
2022-09-28T13:20:39.024Z,98736.81
2022-09-28T13:23:21.285Z,98737.34
2022-09-28T13:25:56.625Z,98731.63
2022-09-28T13:28:27.235Z,98736.72
2022-09-28T13:30:56.751Z,98737.22
2022-09-28T13:33:31.471Z,98730.47
2022-09-28T13:35:58.043Z,98730.06
2022-09-28T13:38:24.684Z,98741.78
2022-09-28T13:41:06.400Z,98732.34
2022-09-28T13:43:59.051Z,98736.59
2022-09-28T13:46:52.126Z,98740.53
2022-09-28T13:49:21.662Z,98744.41
2022-09-28T13:51:51.143Z,98748.81
2022-09-28T13:54:29.762Z,98736.84
2022-09-28T13:57:16.942Z,98742.78
2022-09-28T14:00:02.597Z,98741.66
2022-09-28T14:02:37.518Z,98739.34
2022-09-28T14:05:22.871Z,98745.31
2022-09-28T14:08:18.873Z,98734.81
2022-09-28T14:10:48.058Z,98750.38
2022-09-28T14:13:43.295Z,98740.84
2022-09-28T14:16:20.314Z,98742.53
2022-09-28T14:19:25.987Z,98744.22
2022-09-28T14:22:30.102Z,98741.81
2022-09-28T14:25:24.297Z,98744.19
2022-09-28T14:28:09.352Z,98734.91
2022-09-28T14:30:41.759Z,98721.84
2022-09-28T14:33:26.754Z,98725.66
2022-09-28T14:35:57.624Z,98719.88
2022-09-28T14:38:47.986Z,98727.03
2022-09-28T14:41:17.285Z,98711.22
2022-09-28T14:43:43.871Z,98727.75
2022-09-28T14:46:10.397Z,98721.59
2022-09-28T14:48:49.915Z,98722.44
2022-09-28T14:51:25.627Z,98723.41
2022-09-28T14:53:59.827Z,98719.31
2022-09-28T14:56:32.612Z,98720.75
2022-09-28T14:59:00.562Z,98713.41
2022-09-28T15:01:27.829Z,98709.28
2022-09-28T15:03:58.634Z,98715.28
2022-09-28T15:06:25.984Z,98708.47
2022-09-28T15:08:52.574Z,98716.31
2022-09-28T15:11:22.764Z,98715.31
2022-09-28T15:13:51.228Z,98719.88
2022-09-28T15:16:18.149Z,98718.94
2022-09-28T15:18:44.747Z,98716.41
2022-09-28T15:21:13.016Z,98715.94
2022-09-28T15:23:41.998Z,98715.59
2022-09-28T15:26:24.875Z,98712.03
2022-09-28T15:28:51.462Z,98703.19
2022-09-28T15:31:21.436Z,98698.00
2022-09-28T15:33:48.546Z,98697.78
2022-09-28T15:36:28.694Z,98703.06
2022-09-28T15:39:07.004Z,98701.47
2022-09-28T15:41:34.278Z,98700.75
2022-09-28T15:44:06.808Z,98697.88
2022-09-28T15:46:36.617Z,98705.84
2022-09-28T15:49:04.700Z,98696.94
2022-09-28T15:51:46.002Z,98693.84
2022-09-28T15:54:21.361Z,98703.69
2022-09-28T15:56:59.247Z,98713.94
2022-09-28T15:59:33.158Z,98710.38
2022-09-28T16:02:19.967Z,98709.50
2022-09-28T16:04:52.922Z,98699.09
2022-09-28T16:07:29.645Z,98706.22
2022-09-28T16:10:12.855Z,98705.06
2022-09-28T16:12:46.965Z,98712.31
2022-09-28T16:15:33.985Z,98703.75
2022-09-28T16:18:12.779Z,98709.88
2022-09-28T16:20:41.374Z,98707.25
2022-09-28T16:23:16.943Z,98701.97
2022-09-28T16:26:09.590Z,98706.56
2022-09-28T16:28:39.169Z,98701.88
2022-09-28T16:31:15.072Z,98704.47
2022-09-28T16:33:53.245Z,98699.84
2022-09-28T16:36:21.281Z,98706.28
2022-09-28T16:38:49.177Z,98703.41
2022-09-28T16:41:23.250Z,98708.94
2022-09-28T16:43:58.892Z,98702.22
2022-09-28T16:46:33.396Z,98710.16
2022-09-28T16:49:00.092Z,98705.06
2022-09-28T16:51:26.682Z,98712.19
2022-09-28T16:53:53.458Z,98709.81
2022-09-28T16:56:20.109Z,98695.22
2022-09-28T16:58:47.629Z,98708.72
2022-09-28T17:01:14.246Z,98715.66
2022-09-28T17:03:41.371Z,98710.75
2022-09-28T17:06:12.141Z,98718.22
2022-09-28T17:08:38.714Z,98713.75
2022-09-28T17:11:24.672Z,98718.63
2022-09-28T17:13:52.237Z,98716.13
2022-09-28T17:16:32.665Z,98715.78
2022-09-28T17:19:28.293Z,98702.75
2022-09-28T17:21:54.964Z,98708.63
2022-09-28T17:24:21.892Z,98707.13
2022-09-28T17:26:51.147Z,98700.41
2022-09-28T17:29:18.349Z,98704.56
2022-09-28T17:31:46.503Z,98705.19
2022-09-28T17:34:16.604Z,98711.06
2022-09-28T17:36:44.123Z,98709.66
2022-09-28T17:39:16.441Z,98714.22
2022-09-28T17:41:43.440Z,98718.81
2022-09-28T17:44:10.596Z,98713.09
2022-09-28T17:46:40.312Z,98714.97
2022-09-28T17:49:07.878Z,98708.41
2022-09-28T17:51:36.415Z,98719.84
2022-09-28T17:54:06.951Z,98720.16
2022-09-28T17:56:34.048Z,98730.81
2022-09-28T17:59:06.065Z,98725.41
2022-09-28T18:01:33.969Z,98729.06
2022-09-28T18:04:03.230Z,98730.28
2022-09-28T18:06:29.839Z,98733.59
2022-09-28T18:08:56.431Z,98737.34
2022-09-28T18:11:25.995Z,98745.31
2022-09-28T18:13:52.577Z,98740.97
2022-09-28T18:16:19.296Z,98745.63
2022-09-28T18:18:45.965Z,98741.63
2022-09-28T18:21:12.659Z,98736.16
2022-09-28T18:23:39.700Z,98738.97
2022-09-28T18:26:14.234Z,98748.47
2022-09-28T18:28:41.001Z,98746.59
2022-09-28T18:31:09.310Z,98746.59
2022-09-28T18:33:51.360Z,98745.94
2022-09-28T18:36:18.059Z,98745.22
2022-09-28T18:38:44.652Z,98744.84
2022-09-28T18:41:18.233Z,98742.97
2022-09-28T18:43:49.348Z,98747.19
2022-09-28T18:46:17.032Z,98751.31
2022-09-28T18:48:43.615Z,98750.66
2022-09-28T18:51:11.955Z,98747.50
2022-09-28T18:53:39.828Z,98748.03
2022-09-28T18:56:09.081Z,98752.16
2022-09-28T18:58:37.153Z,98753.09
2022-09-28T19:01:30.134Z,98759.34
2022-09-28T19:04:02.493Z,98763.75
2022-09-28T19:06:29.422Z,98754.81
2022-09-28T19:08:56.880Z,98755.41
2022-09-28T19:11:24.784Z,98757.41
2022-09-28T19:13:53.334Z,98758.66
2022-09-28T19:16:23.496Z,98759.84
2022-09-28T19:18:51.330Z,98760.69
2022-09-28T19:21:17.952Z,98756.97
2022-09-28T19:23:49.204Z,98752.25
2022-09-28T19:26:18.821Z,98760.72
2022-09-28T19:31:12.172Z,98769.34
2022-09-28T19:33:40.054Z,98765.03
2022-09-28T19:36:13.123Z,98761.22
2022-09-28T19:38:40.471Z,98758.41
2022-09-28T19:41:18.301Z,98756.78
2022-09-28T19:43:44.868Z,98760.03
2022-09-28T19:46:11.463Z,98752.09
2022-09-28T19:48:38.109Z,98748.88
2022-09-28T19:51:06.414Z,98745.88
2022-09-28T19:53:34.731Z,98744.13
2022-09-28T19:56:01.381Z,98743.03
2022-09-28T19:58:34.419Z,98737.44
2022-09-28T20:01:05.312Z,98741.13
2022-09-28T20:03:32.514Z,98736.88
2022-09-28T20:06:00.347Z,98736.72
2022-09-28T20:08:27.804Z,98737.06
2022-09-28T20:10:54.900Z,98736.97
2022-09-28T20:13:21.879Z,98730.47
2022-09-28T20:15:48.486Z,98728.22
2022-09-28T20:18:15.277Z,98728.03
2022-09-28T20:20:42.206Z,98730.66
2022-09-28T20:23:09.777Z,98731.75
2022-09-28T20:25:36.684Z,98725.94
2022-09-28T20:28:03.259Z,98731.78
2022-09-28T20:30:29.854Z,98735.28
2022-09-28T20:32:56.430Z,98737.47
2022-09-28T20:35:32.686Z,98729.91
2022-09-28T20:37:59.476Z,98727.66
2022-09-28T20:40:26.085Z,98732.94
2022-09-28T20:42:52.690Z,98727.06
2022-09-28T20:45:19.327Z,98724.41
2022-09-28T20:47:45.906Z,98716.78
2022-09-28T20:50:12.524Z,98714.31
2022-09-28T20:52:39.156Z,98713.75
2022-09-28T20:55:06.113Z,98717.16
2022-09-28T20:57:32.675Z,98712.06
2022-09-28T20:59:59.295Z,98707.91
2022-09-28T21:02:25.971Z,98704.91
2022-09-28T21:04:52.636Z,98700.44
2022-09-28T21:07:19.240Z,98704.31
2022-09-28T21:09:45.819Z,98697.72
2022-09-28T21:12:12.404Z,98693.69
2022-09-28T21:14:39.049Z,98688.84
2022-09-28T21:17:05.725Z,98694.63
2022-09-28T21:19:32.303Z,98689.88
2022-09-28T21:22:00.191Z,98686.88
2022-09-28T21:24:26.740Z,98685.34
2022-09-28T21:26:53.365Z,98679.13
2022-09-28T21:29:20.010Z,98680.09
2022-09-28T21:31:46.805Z,98684.13
2022-09-28T21:34:15.967Z,98680.81
2022-09-28T21:36:42.588Z,98678.63
2022-09-28T21:39:10.548Z,98675.84
2022-09-28T21:41:37.306Z,98675.28
2022-09-28T21:44:03.897Z,98673.72
2022-09-28T21:46:30.601Z,98665.44
2022-09-28T21:48:57.216Z,98670.47
2022-09-28T21:51:23.829Z,98669.91
2022-09-28T21:53:50.431Z,98666.75
2022-09-28T21:56:17.274Z,98668.56
2022-09-28T21:58:43.858Z,98675.47
2022-09-28T22:01:13.249Z,98674.31
2022-09-28T22:03:41.554Z,98680.34
2022-09-28T22:06:09.047Z,98683.44
2022-09-28T22:08:36.513Z,98687.22
2022-09-28T22:11:12.863Z,98683.16
2022-09-28T22:13:48.493Z,98677.59
2022-09-28T22:16:18.194Z,98684.59
2022-09-28T22:18:45.887Z,98684.22
2022-09-28T22:21:15.266Z,98684.97
2022-09-28T22:23:42.311Z,98681.41
2022-09-28T22:26:15.453Z,98680.66
2022-09-28T22:28:46.410Z,98677.59
2022-09-28T22:31:14.719Z,98681.59
2022-09-28T22:33:41.551Z,98679.13
2022-09-28T22:36:08.139Z,98671.13
2022-09-28T22:38:35.416Z,98667.34
2022-09-28T22:41:02.257Z,98670.75
2022-09-28T22:43:29.116Z,98670.47
2022-09-28T22:46:10.413Z,98661.84
2022-09-28T22:48:37.843Z,98669.53
2022-09-28T22:51:06.021Z,98673.66
2022-09-28T22:53:34.000Z,98674.41
2022-09-28T22:56:01.470Z,98680.38
2022-09-28T22:58:28.037Z,98675.94
2022-09-28T23:00:54.609Z,98675.28
2022-09-28T23:03:21.172Z,98673.19
2022-09-28T23:05:54.903Z,98675.38
2022-09-28T23:08:22.530Z,98671.97
2022-09-28T23:10:49.601Z,98666.22
2022-09-28T23:13:16.377Z,98663.00
2022-09-28T23:15:43.101Z,98664.44
2022-09-28T23:18:10.851Z,98665.63
2022-09-28T23:20:37.411Z,98667.91
2022-09-28T23:23:03.987Z,98660.44
2022-09-28T23:25:30.566Z,98666.97
2022-09-28T23:27:57.128Z,98673.09
2022-09-28T23:30:23.979Z,98673.56
2022-09-28T23:32:52.261Z,98669.50
2022-09-28T23:35:18.843Z,98672.22
2022-09-28T23:37:49.811Z,98669.13
2022-09-28T23:40:16.470Z,98665.91
2022-09-28T23:42:43.126Z,98661.97
2022-09-28T23:45:10.012Z,98655.91
2022-09-28T23:47:37.115Z,98646.09
2022-09-28T23:50:05.676Z,98658.72
2022-09-28T23:52:32.270Z,98665.47
2022-09-28T23:54:58.902Z,98669.13
2022-09-28T23:57:25.483Z,98673.84
2022-09-28T23:59:52.032Z,98671.38
